createdAt,value
2022-08-07T00:00:36.678Z,18.60
2022-08-07T00:03:08.800Z,18.75
2022-08-07T00:05:37.161Z,18.53
2022-08-07T00:08:04.785Z,18.51
2022-08-07T00:10:31.724Z,18.50
2022-08-07T00:13:02.302Z,17.86
2022-08-07T00:15:46.366Z,18.19
2022-08-07T00:18:23.918Z,17.78
2022-08-07T00:20:51.336Z,17.99
2022-08-07T00:23:18.426Z,18.34
2022-08-07T00:25:52.536Z,17.92
2022-08-07T00:28:33.685Z,18.23
2022-08-07T00:31:12.395Z,18.38
2022-08-07T00:33:43.328Z,18.59
2022-08-07T00:36:14.312Z,18.09
2022-08-07T00:38:40.896Z,18.64
2022-08-07T00:41:10.055Z,18.47
2022-08-07T00:44:01.274Z,18.36
2022-08-07T00:46:28.465Z,18.12
2022-08-07T00:48:55.113Z,18.20
2022-08-07T00:51:21.695Z,18.01
2022-08-07T00:53:50.640Z,18.21
2022-08-07T00:56:22.632Z,17.96
2022-08-07T00:58:49.801Z,18.08
2022-08-07T01:01:17.147Z,18.09
2022-08-07T01:03:56.055Z,18.02
2022-08-07T01:06:25.873Z,18.13
2022-08-07T01:08:53.969Z,18.39
2022-08-07T01:12:23.708Z,18.42
2022-08-07T01:14:09.671Z,18.39
2022-08-07T01:16:37.046Z,18.25
2022-08-07T01:19:18.087Z,18.07
2022-08-07T01:21:47.132Z,18.08
2022-08-07T01:24:14.263Z,18.01
2022-08-07T01:26:51.544Z,17.74
2022-08-07T01:29:19.879Z,17.81
2022-08-07T01:31:48.655Z,17.67
2022-08-07T01:34:17.866Z,17.73
2022-08-07T01:36:52.434Z,17.68
2022-08-07T01:39:39.564Z,17.78
2022-08-07T01:42:39.015Z,17.71
2022-08-07T01:44:54.844Z,17.58
2022-08-07T01:48:29.260Z,17.39
2022-08-07T01:50:09.105Z,17.30
2022-08-07T01:52:38.785Z,17.22
2022-08-07T01:55:10.101Z,17.43
2022-08-07T01:58:06.445Z,16.92
2022-08-07T02:00:45.262Z,16.50
2022-08-07T02:03:21.501Z,16.41
2022-08-07T02:05:59.822Z,16.67
2022-08-07T02:08:28.144Z,16.80
2022-08-07T02:10:58.601Z,17.00
2022-08-07T02:13:56.820Z,16.72
2022-08-07T02:16:14.596Z,16.48
2022-08-07T02:18:47.075Z,16.53
2022-08-07T02:21:16.096Z,16.25
2022-08-07T02:23:43.879Z,16.23
2022-08-07T02:26:32.919Z,16.45
2022-08-07T02:28:58.561Z,16.83
2022-08-07T02:31:28.826Z,17.02
2022-08-07T02:34:03.523Z,16.77
2022-08-07T02:36:32.963Z,16.44
2022-08-07T02:39:01.889Z,16.69
2022-08-07T02:41:37.410Z,16.71
2022-08-07T02:44:05.012Z,16.84
2022-08-07T02:46:34.101Z,16.69
2022-08-07T02:49:05.311Z,16.63
2022-08-07T02:51:42.938Z,16.61
2022-08-07T02:54:17.897Z,16.52
2022-08-07T02:56:46.852Z,15.94
2022-08-07T02:59:18.644Z,16.33
2022-08-07T03:01:52.232Z,16.39
2022-08-07T03:04:23.210Z,15.88
2022-08-07T03:06:52.362Z,16.35
2022-08-07T03:09:41.886Z,15.85
2022-08-07T03:12:08.137Z,15.81
2022-08-07T03:14:52.125Z,16.09
2022-08-07T03:17:19.406Z,15.99
2022-08-07T03:19:54.431Z,16.04
2022-08-07T03:22:22.729Z,16.01
2022-08-07T03:24:51.149Z,15.76
2022-08-07T03:27:30.268Z,15.65
2022-08-07T03:29:58.125Z,15.56
2022-08-07T03:32:34.346Z,15.76
2022-08-07T03:35:17.450Z,15.74
2022-08-07T03:37:54.071Z,15.85
2022-08-07T03:40:23.190Z,16.07
2022-08-07T03:42:54.253Z,16.05
2022-08-07T03:45:30.877Z,15.81
2022-08-07T03:47:59.210Z,16.24
2022-08-07T03:50:28.374Z,16.18
2022-08-07T03:52:58.128Z,16.31
2022-08-07T03:55:25.015Z,16.06
2022-08-07T03:59:05.587Z,16.39
2022-08-07T04:01:00.494Z,16.40
2022-08-07T04:03:27.240Z,16.19
2022-08-07T04:05:58.898Z,16.25
2022-08-07T04:08:26.858Z,16.62
2022-08-07T04:12:15.586Z,16.71
2022-08-07T04:14:10.658Z,16.90
2022-08-07T04:16:30.202Z,16.67
2022-08-07T04:19:03.873Z,16.79
2022-08-07T04:21:38.887Z,17.10
2022-08-07T04:24:10.336Z,17.03
2022-08-07T04:26:57.995Z,17.27
2022-08-07T04:29:24.560Z,17.06
2022-08-07T04:32:03.262Z,17.26
2022-08-07T04:34:39.457Z,17.33
2022-08-07T04:37:15.209Z,17.27
2022-08-07T04:39:47.930Z,17.26
2022-08-07T04:42:16.523Z,17.16
2022-08-07T04:44:54.522Z,17.17
2022-08-07T04:48:01.190Z,17.23
2022-08-07T04:50:57.362Z,17.52
2022-08-07T04:54:01.185Z,17.42
2022-08-07T04:58:14.419Z,17.40
2022-08-07T05:00:12.066Z,17.45
2022-08-07T05:02:38.049Z,17.56
2022-08-07T05:05:52.650Z,17.24
2022-08-07T05:08:09.131Z,17.09
2022-08-07T05:10:43.770Z,17.16
2022-08-07T05:14:55.447Z,17.43
2022-08-07T05:16:09.212Z,17.34
2022-08-07T05:18:41.312Z,17.08
2022-08-07T05:21:10.008Z,17.47
2022-08-07T05:24:02.277Z,17.31
2022-08-07T05:26:31.171Z,17.39
2022-08-07T05:29:00.405Z,17.71
2022-08-07T05:31:38.561Z,17.82
2022-08-07T05:34:11.363Z,17.66
2022-08-07T05:36:52.583Z,17.46
2022-08-07T05:40:05.631Z,17.64
2022-08-07T05:42:12.547Z,17.53
2022-08-07T05:44:41.515Z,17.83
2022-08-07T05:47:18.029Z,17.94
2022-08-07T05:49:49.445Z,18.03
2022-08-07T05:52:20.287Z,17.99
2022-08-07T05:54:55.459Z,18.24
2022-08-07T05:57:26.766Z,18.45
2022-08-07T06:00:00.194Z,18.04
2022-08-07T06:02:30.646Z,18.48
2022-08-07T06:05:03.332Z,18.77
2022-08-07T06:08:09.288Z,18.69
2022-08-07T06:10:18.757Z,18.99
2022-08-07T06:12:46.978Z,19.08
2022-08-07T06:15:16.198Z,19.34
2022-08-07T06:17:50.845Z,19.28
2022-08-07T06:20:25.605Z,19.28
2022-08-07T06:23:02.297Z,19.22
2022-08-07T06:25:54.656Z,18.90
2022-08-07T06:28:27.452Z,19.44
2022-08-07T06:30:55.420Z,19.33
2022-08-07T06:33:22.927Z,19.57
2022-08-07T06:36:06.385Z,19.69
2022-08-07T06:38:36.093Z,19.65
2022-08-07T06:41:07.024Z,19.72
2022-08-07T06:43:39.463Z,19.17
2022-08-07T06:46:11.634Z,19.58
2022-08-07T06:48:42.005Z,19.86
2022-08-07T06:51:15.395Z,20.09
2022-08-07T06:54:12.064Z,20.17
2022-08-07T06:56:49.731Z,20.32
2022-08-07T07:00:14.596Z,20.33
2022-08-07T07:02:49.096Z,20.38
2022-08-07T07:05:09.404Z,20.56
2022-08-07T07:07:59.357Z,20.62
2022-08-07T07:10:34.972Z,20.82
2022-08-07T07:13:07.761Z,21.22
2022-08-07T07:15:44.766Z,20.92
2022-08-07T07:18:47.922Z,21.10
2022-08-07T07:21:19.372Z,21.30
2022-08-07T07:24:05.554Z,21.14
2022-08-07T07:26:37.234Z,21.24
2022-08-07T07:29:55.911Z,21.48
2022-08-07T07:31:56.814Z,21.44
2022-08-07T07:34:31.009Z,21.28
2022-08-07T07:37:05.605Z,21.83
2022-08-07T07:39:52.149Z,21.52
2022-08-07T07:42:33.093Z,22.33
2022-08-07T07:45:04.760Z,22.73
2022-08-07T07:47:51.945Z,22.39
2022-08-07T07:50:35.772Z,23.24
2022-08-07T07:53:06.366Z,22.75
2022-08-07T07:55:54.744Z,22.59
2022-08-07T07:58:26.437Z,23.07
2022-08-07T08:00:55.441Z,22.79
2022-08-07T08:04:09.411Z,23.00
2022-08-07T08:06:11.555Z,22.59
2022-08-07T08:08:41.940Z,22.78
2022-08-07T08:11:16.118Z,23.02
2022-08-07T08:13:54.348Z,23.56
2022-08-07T08:16:35.217Z,23.98
2022-08-07T08:19:09.873Z,23.69
2022-08-07T08:22:07.922Z,23.85
2022-08-07T08:25:09.447Z,24.42
2022-08-07T08:27:56.732Z,24.67
2022-08-07T08:30:25.075Z,25.01
2022-08-07T08:32:57.492Z,25.40
2022-08-07T08:35:28.723Z,25.29
2022-08-07T08:38:04.755Z,25.56
2022-08-07T08:40:39.514Z,26.03
2022-08-07T08:43:42.359Z,26.20
2022-08-07T08:46:14.435Z,27.01
2022-08-07T08:48:51.706Z,26.90
2022-08-07T08:51:49.949Z,27.44
2022-08-07T08:54:30.511Z,27.40
2022-08-07T08:56:58.542Z,27.98
2022-08-07T08:59:50.998Z,28.36
2022-08-07T09:02:36.402Z,28.54
2022-08-07T09:05:24.951Z,28.85
2022-08-07T09:08:24.332Z,29.04
2022-08-07T09:11:24.765Z,29.24
2022-08-07T09:14:13.445Z,30.40
2022-08-07T09:16:47.630Z,29.55
2022-08-07T09:19:52.852Z,29.94
2022-08-07T09:24:32.968Z,30.57
2022-08-07T09:25:34.279Z,31.02
2022-08-07T09:30:02.017Z,31.68
2022-08-07T09:31:15.410Z,35.40
2022-08-07T09:34:15.899Z,41.48
2022-08-07T09:36:59.271Z,42.99
2022-08-07T09:39:55.024Z,43.93
2022-08-07T09:42:54.712Z,50.27
2022-08-07T09:47:51.765Z,50.01
2022-08-07T09:49:09.439Z,52.05
2022-08-07T09:52:16.190Z,52.66
2022-08-07T09:54:39.493Z,53.36
2022-08-07T09:57:15.470Z,54.58
2022-08-07T10:00:04.117Z,53.89
2022-08-07T10:03:07.888Z,55.85
2022-08-07T10:06:04.479Z,56.95
2022-08-07T10:08:58.906Z,58.00
2022-08-07T10:12:02.288Z,59.40
2022-08-07T10:14:54.936Z,59.70
2022-08-07T10:18:00.868Z,59.06
2022-08-07T10:21:02.790Z,60.86
2022-08-07T10:24:05.476Z,60.80
2022-08-07T10:26:37.039Z,59.82
2022-08-07T10:29:25.309Z,60.83
2022-08-07T10:32:06.195Z,61.42
2022-08-07T10:35:55.812Z,60.20
2022-08-07T10:38:35.812Z,60.94
2022-08-07T10:41:46.395Z,61.07
2022-08-07T10:44:15.885Z,60.87
2022-08-07T10:47:03.527Z,57.45
2022-08-07T10:49:49.605Z,52.59
2022-08-07T10:52:51.208Z,56.01
2022-08-07T10:55:37.075Z,57.24
2022-08-07T10:58:36.407Z,57.87
2022-08-07T11:01:11.745Z,57.26
2022-08-07T11:03:52.763Z,57.82
2022-08-07T11:06:28.342Z,53.66
2022-08-07T11:09:02.248Z,52.45
2022-08-07T11:11:35.661Z,53.48
2022-08-07T11:15:00.318Z,54.03
2022-08-07T11:17:45.734Z,54.46
2022-08-07T11:20:35.609Z,54.91
2022-08-07T11:23:12.330Z,56.50
2022-08-07T11:26:13.069Z,58.12
2022-08-07T11:28:51.367Z,56.87
2022-08-07T11:32:08.744Z,56.91
2022-08-07T11:34:46.050Z,57.53
2022-08-07T11:37:58.429Z,52.16
2022-08-07T11:40:51.760Z,53.56
2022-08-07T11:43:41.498Z,53.09
2022-08-07T11:46:55.413Z,49.06
2022-08-07T11:50:30.073Z,50.57
2022-08-07T11:52:54.156Z,53.28
2022-08-07T11:56:12.038Z,52.56
2022-08-07T12:00:12.325Z,55.92
2022-08-07T12:02:30.463Z,53.67
2022-08-07T12:05:15.310Z,56.35
2022-08-07T12:08:04.056Z,58.27
2022-08-07T12:10:30.847Z,58.31
2022-08-07T12:13:11.508Z,57.43
2022-08-07T12:16:05.808Z,53.27
2022-08-07T12:18:45.149Z,55.25
2022-08-07T12:21:55.911Z,50.69
2022-08-07T12:24:37.662Z,43.74
2022-08-07T12:27:16.938Z,38.52
2022-08-07T12:29:51.531Z,36.70
2022-08-07T12:32:30.467Z,34.79
2022-08-07T12:34:58.298Z,33.55
2022-08-07T12:37:28.503Z,33.21
2022-08-07T12:40:36.377Z,32.12
2022-08-07T12:43:09.203Z,31.78
2022-08-07T12:45:52.744Z,31.00
2022-08-07T12:48:52.844Z,30.51
2022-08-07T12:51:21.850Z,30.74
2022-08-07T12:54:02.713Z,30.62
2022-08-07T12:56:51.498Z,30.44
2022-08-07T12:59:30.439Z,30.18
2022-08-07T13:02:30.991Z,30.28
2022-08-07T13:05:14.682Z,30.08
2022-08-07T13:08:19.395Z,30.43
2022-08-07T13:10:56.842Z,30.15
2022-08-07T13:14:23.745Z,29.41
2022-08-07T13:17:12.236Z,29.76
2022-08-07T13:19:52.766Z,30.04
2022-08-07T13:22:37.298Z,29.98
2022-08-07T13:25:23.985Z,29.93
2022-08-07T13:28:10.952Z,29.73
2022-08-07T13:30:52.298Z,30.16
2022-08-07T13:34:30.666Z,29.33
2022-08-07T13:36:39.916Z,29.27
2022-08-07T13:40:33.147Z,29.55
2022-08-07T13:42:21.647Z,29.32
2022-08-07T13:45:20.936Z,29.14
2022-08-07T13:48:05.880Z,29.57
2022-08-07T13:50:33.063Z,29.56
2022-08-07T13:53:04.048Z,29.95
2022-08-07T13:55:36.891Z,30.63
2022-08-07T13:58:31.456Z,30.70
2022-08-07T14:01:09.952Z,30.54
2022-08-07T14:04:07.236Z,30.79
2022-08-07T14:06:36.172Z,30.13
2022-08-07T14:09:05.192Z,30.58
2022-08-07T14:11:53.621Z,30.99
2022-08-07T14:14:33.188Z,31.16
2022-08-07T14:17:51.414Z,31.32
2022-08-07T14:20:43.596Z,31.07
2022-08-07T14:22:46.441Z,31.20
2022-08-07T14:25:15.973Z,31.41
2022-08-07T14:28:19.941Z,31.79
2022-08-07T14:30:37.630Z,30.94
2022-08-07T14:33:08.508Z,30.18
2022-08-07T14:35:45.807Z,30.36
2022-08-07T14:38:24.546Z,30.98
2022-08-07T14:40:58.970Z,31.35
2022-08-07T14:46:17.674Z,30.08
2022-08-07T14:48:48.382Z,30.61
2022-08-07T14:51:27.254Z,31.32
2022-08-07T14:54:33.052Z,31.83
2022-08-07T14:57:04.131Z,31.57
2022-08-07T15:00:04.353Z,30.61
2022-08-07T15:08:05.129Z,32.23
2022-08-07T15:10:58.656Z,32.02
2022-08-07T15:13:26.839Z,31.84
2022-08-07T15:16:11.076Z,31.56
2022-08-07T15:18:43.576Z,31.33
2022-08-07T15:21:58.706Z,31.22
2022-08-07T15:25:12.824Z,30.90
2022-08-07T15:27:06.193Z,31.41
2022-08-07T15:32:39.841Z,31.04
2022-08-07T15:35:13.312Z,30.84
2022-08-07T15:40:34.332Z,30.11
2022-08-07T15:43:10.565Z,30.34
2022-08-07T15:46:03.538Z,30.16
2022-08-07T15:48:37.143Z,29.49
2022-08-07T15:54:12.361Z,29.80
2022-08-07T15:56:41.521Z,29.81
2022-08-07T15:59:16.277Z,29.95
2022-08-07T16:02:01.866Z,30.33
2022-08-07T16:04:32.051Z,29.71
2022-08-07T16:07:00.591Z,30.13
2022-08-07T16:09:41.926Z,30.54
2022-08-07T16:12:33.833Z,30.36
2022-08-07T16:15:58.184Z,30.35
2022-08-07T16:18:50.005Z,30.22
2022-08-07T16:22:02.223Z,30.15
2022-08-07T16:24:52.739Z,30.10
2022-08-07T16:27:39.990Z,30.38
2022-08-07T16:30:30.277Z,30.12
2022-08-07T16:34:02.994Z,29.80
2022-08-07T16:37:02.820Z,29.79
2022-08-07T16:39:48.971Z,29.78
2022-08-07T16:42:37.429Z,29.75
2022-08-07T16:46:21.070Z,29.49
2022-08-07T16:48:53.817Z,29.40
2022-08-07T16:51:54.507Z,29.24
2022-08-07T16:54:55.038Z,28.80
2022-08-07T16:58:02.575Z,28.67
2022-08-07T17:00:29.987Z,28.70
2022-08-07T17:03:19.263Z,28.56
2022-08-07T17:06:31.324Z,28.51
2022-08-07T17:09:10.651Z,28.37
2022-08-07T17:12:04.725Z,28.45
2022-08-07T17:14:41.537Z,28.39
2022-08-07T17:17:46.600Z,28.15
2022-08-07T17:20:37.487Z,27.90
2022-08-07T17:23:22.638Z,28.22
2022-08-07T17:26:23.557Z,28.42
2022-08-07T17:29:04.950Z,28.20
2022-08-07T17:32:03.106Z,27.95
2022-08-07T17:35:02.682Z,28.09
2022-08-07T17:38:09.441Z,27.93
2022-08-07T17:40:34.725Z,27.81
2022-08-07T17:43:17.793Z,27.87
2022-08-07T17:45:55.466Z,27.78
2022-08-07T17:48:32.324Z,28.16
2022-08-07T17:51:21.276Z,27.92
2022-08-07T17:54:06.444Z,28.01
2022-08-07T17:56:49.793Z,27.69
2022-08-07T17:59:24.303Z,27.66
2022-08-07T18:01:58.048Z,27.52
2022-08-07T18:04:37.732Z,27.26
2022-08-07T18:07:20.199Z,27.55
2022-08-07T18:10:06.370Z,27.52
2022-08-07T18:13:06.830Z,27.61
2022-08-07T18:15:53.705Z,27.67
2022-08-07T18:18:47.361Z,27.55
2022-08-07T18:21:37.234Z,27.52
2022-08-07T18:24:28.450Z,26.48
2022-08-07T18:27:22.951Z,27.18
2022-08-07T18:30:06.534Z,26.46
2022-08-07T18:33:15.210Z,27.04
2022-08-07T18:36:16.176Z,26.86
2022-08-07T18:40:05.736Z,26.86
2022-08-07T18:42:11.949Z,27.01
2022-08-07T18:48:01.503Z,26.94
2022-08-07T18:50:47.405Z,26.82
2022-08-07T18:53:36.730Z,26.83
2022-08-07T18:56:35.255Z,26.66
2022-08-07T18:59:10.214Z,26.61
2022-08-07T19:02:36.658Z,26.67
2022-08-07T19:05:21.604Z,26.45
2022-08-07T19:08:03.786Z,26.32
2022-08-07T19:10:51.467Z,26.12
2022-08-07T19:13:50.168Z,26.26
2022-08-07T19:17:00.489Z,26.19
2022-08-07T19:19:50.955Z,25.91
2022-08-07T19:22:36.161Z,25.97
2022-08-07T19:25:06.454Z,25.74
2022-08-07T19:30:54.480Z,25.75
2022-08-07T19:31:01.704Z,25.48
2022-08-07T19:33:13.177Z,25.50
2022-08-07T19:35:44.470Z,25.54
2022-08-07T19:38:15.959Z,25.33
2022-08-07T19:40:50.699Z,25.53
2022-08-07T19:43:44.128Z,25.59
2022-08-07T19:46:17.751Z,25.57
2022-08-07T19:48:54.497Z,25.28
2022-08-07T19:51:50.978Z,25.27
2022-08-07T19:54:32.522Z,25.37
2022-08-07T19:58:03.204Z,25.06
2022-08-07T19:59:54.188Z,25.15
2022-08-07T20:02:52.008Z,24.70
2022-08-07T20:05:22.235Z,25.08
2022-08-07T20:07:50.905Z,24.80
2022-08-07T20:10:36.966Z,24.89
2022-08-07T20:13:23.780Z,24.89
2022-08-07T20:15:57.564Z,24.98
2022-08-07T20:18:32.709Z,24.60
2022-08-07T20:21:03.462Z,24.60
2022-08-07T20:23:48.382Z,24.39
2022-08-07T20:26:32.233Z,24.57
2022-08-07T20:29:01.596Z,24.64
2022-08-07T20:31:38.332Z,24.50
2022-08-07T20:34:05.961Z,24.60
2022-08-07T20:36:33.740Z,24.38
2022-08-07T20:39:11.680Z,24.14
2022-08-07T20:41:53.305Z,24.19
2022-08-07T20:44:29.016Z,24.41
2022-08-07T20:47:05.593Z,24.10
2022-08-07T20:49:59.098Z,24.21
2022-08-07T20:52:50.672Z,24.40
2022-08-07T20:55:23.810Z,24.21
2022-08-07T20:58:03.702Z,24.17
2022-08-07T21:00:44.390Z,24.17
2022-08-07T21:03:19.202Z,23.76
2022-08-07T21:06:25.764Z,23.88
2022-08-07T21:09:15.099Z,23.82
2022-08-07T21:11:50.210Z,23.58
2022-08-07T21:14:32.620Z,23.59
2022-08-07T21:18:01.265Z,23.42
2022-08-07T21:20:04.483Z,23.19
2022-08-07T21:22:53.543Z,22.87
2022-08-07T21:25:29.070Z,23.04
2022-08-07T21:28:19.102Z,22.96
2022-08-07T21:31:49.813Z,23.04
2022-08-07T21:34:32.315Z,22.51
2022-08-07T21:37:21.503Z,22.46
2022-08-07T21:40:00.817Z,22.37
2022-08-07T21:42:55.850Z,22.52
2022-08-07T21:46:08.712Z,22.10
2022-08-07T21:49:00.389Z,22.09
2022-08-07T21:51:51.320Z,22.14
2022-08-07T21:54:38.560Z,21.86
2022-08-07T21:57:39.581Z,21.88
2022-08-07T22:00:23.005Z,22.10
2022-08-07T22:03:08.870Z,22.25
2022-08-07T22:06:04.396Z,22.09
2022-08-07T22:08:39.205Z,22.17
2022-08-07T22:11:06.117Z,22.13
2022-08-07T22:13:52.233Z,22.19
2022-08-07T22:16:41.671Z,21.72
2022-08-07T22:19:30.115Z,21.85
2022-08-07T22:22:01.846Z,21.82
2022-08-07T22:24:40.103Z,21.96
2022-08-07T22:27:18.661Z,21.62
2022-08-07T22:29:54.310Z,21.57
2022-08-07T22:32:33.526Z,21.67
2022-08-07T22:35:02.128Z,21.95
2022-08-07T22:38:03.693Z,22.24
2022-08-07T22:40:52.706Z,22.40
2022-08-07T22:43:43.512Z,22.45
2022-08-07T22:47:04.520Z,22.27
2022-08-07T22:49:54.039Z,22.22
2022-08-07T22:52:36.825Z,22.25
2022-08-07T22:55:32.604Z,22.15
2022-08-07T22:58:06.817Z,22.19
2022-08-07T23:00:51.111Z,22.09
2022-08-07T23:03:58.340Z,22.16
2022-08-07T23:06:51.728Z,22.11
2022-08-07T23:10:06.206Z,21.90
2022-08-07T23:12:53.083Z,22.00
2022-08-07T23:15:22.085Z,22.05
2022-08-07T23:18:26.805Z,21.93
2022-08-07T23:21:29.938Z,21.52
2022-08-07T23:24:50.455Z,21.73
2022-08-07T23:27:34.122Z,21.08
2022-08-07T23:30:38.976Z,21.52
2022-08-07T23:34:34.210Z,21.41
2022-08-07T23:37:17.562Z,21.62
2022-08-07T23:39:59.607Z,21.58
2022-08-07T23:42:53.402Z,21.71
2022-08-07T23:45:33.564Z,21.49
2022-08-07T23:48:19.242Z,21.57
2022-08-07T23:50:58.134Z,21.56
2022-08-07T23:53:50.964Z,21.47
2022-08-07T23:56:38.980Z,21.07
